sensor_id;sensor_type;location;lat;lon;timestamp;P1;durP1;ratioP1;P2;durP2;ratioP2
68608;SDS011;55581;46.718;7.690;2023-06-19T00:00:03;8.60;;;4.77;;
68608;SDS011;55581;46.718;7.690;2023-06-19T00:02:32;10.02;;;4.90;;
68608;SDS011;55581;46.718;7.690;2023-06-19T00:04:58;7.97;;;4.82;;
68608;SDS011;55581;46.718;7.690;2023-06-19T00:07:23;7.30;;;4.63;;
68608;SDS011;55581;46.718;7.690;2023-06-19T00:09:52;8.00;;;4.80;;
68608;SDS011;55581;46.718;7.690;2023-06-19T00:12:17;8.07;;;5.00;;
68608;SDS011;55581;46.718;7.690;2023-06-19T00:14:43;8.02;;;5.10;;
68608;SDS011;55581;46.718;7.690;2023-06-19T00:17:09;7.77;;;4.47;;
68608;SDS011;55581;46.718;7.690;2023-06-19T00:19:35;7.53;;;4.70;;
68608;SDS011;55581;46.718;7.690;2023-06-19T00:22:03;7.20;;;4.70;;
68608;SDS011;55581;46.718;7.690;2023-06-19T00:24:29;8.97;;;4.67;;
68608;SDS011;55581;46.718;7.690;2023-06-19T00:26:54;7.03;;;4.88;;
68608;SDS011;55581;46.718;7.690;2023-06-19T00:29:27;7.10;;;4.67;;
68608;SDS011;55581;46.718;7.690;2023-06-19T00:31:53;7.85;;;4.78;;
68608;SDS011;55581;46.718;7.690;2023-06-19T00:34:18;7.95;;;4.95;;
68608;SDS011;55581;46.718;7.690;2023-06-19T00:36:44;7.47;;;4.40;;
68608;SDS011;55581;46.718;7.690;2023-06-19T00:39:10;10.25;;;5.05;;
68608;SDS011;55581;46.718;7.690;2023-06-19T00:41:35;7.47;;;4.73;;
68608;SDS011;55581;46.718;7.690;2023-06-19T00:44:01;7.78;;;4.38;;
68608;SDS011;55581;46.718;7.690;2023-06-19T00:46:27;8.27;;;4.53;;
68608;SDS011;55581;46.718;7.690;2023-06-19T00:48:55;10.50;;;5.57;;
68608;SDS011;55581;46.718;7.690;2023-06-19T00:51:22;7.00;;;4.60;;
68608;SDS011;55581;46.718;7.690;2023-06-19T00:53:48;9.03;;;4.67;;
68608;SDS011;55581;46.718;7.690;2023-06-19T00:56:14;7.78;;;4.38;;
68608;SDS011;55581;46.718;7.690;2023-06-19T00:58:43;7.32;;;4.47;;
68608;SDS011;55581;46.718;7.690;2023-06-19T01:01:09;7.90;;;5.30;;
68608;SDS011;55581;46.718;7.690;2023-06-19T01:03:35;9.35;;;4.78;;
68608;SDS011;55581;46.718;7.690;2023-06-19T01:06:01;7.63;;;4.78;;
68608;SDS011;55581;46.718;7.690;2023-06-19T01:11:20;7.63;;;5.07;;
68608;SDS011;55581;46.718;7.690;2023-06-19T01:13:50;8.90;;;5.10;;
68608;SDS011;55581;46.718;7.690;2023-06-19T01:16:21;8.35;;;5.03;;
68608;SDS011;55581;46.718;7.690;2023-06-19T01:18:47;7.15;;;4.75;;
68608;SDS011;55581;46.718;7.690;2023-06-19T01:21:17;10.15;;;5.35;;
68608;SDS011;55581;46.718;7.690;2023-06-19T01:23:44;7.53;;;5.00;;
68608;SDS011;55581;46.718;7.690;2023-06-19T01:26:10;9.27;;;5.00;;
68608;SDS011;55581;46.718;7.690;2023-06-19T01:28:36;8.73;;;4.80;;
68608;SDS011;55581;46.718;7.690;2023-06-19T01:31:18;9.30;;;5.03;;
68608;SDS011;55581;46.718;7.690;2023-06-19T01:34:08;8.27;;;5.10;;
68608;SDS011;55581;46.718;7.690;2023-06-19T01:36:35;8.07;;;4.83;;
68608;SDS011;55581;46.718;7.690;2023-06-19T01:39:03;8.95;;;4.80;;
68608;SDS011;55581;46.718;7.690;2023-06-19T01:41:30;7.63;;;4.50;;
68608;SDS011;55581;46.718;7.690;2023-06-19T01:43:57;8.02;;;4.60;;
68608;SDS011;55581;46.718;7.690;2023-06-19T01:46:23;7.20;;;4.47;;
68608;SDS011;55581;46.718;7.690;2023-06-19T01:48:48;9.15;;;5.20;;
68608;SDS011;55581;46.718;7.690;2023-06-19T01:51:14;7.80;;;5.33;;
68608;SDS011;55581;46.718;7.690;2023-06-19T01:53:40;7.25;;;4.75;;
68608;SDS011;55581;46.718;7.690;2023-06-19T01:56:06;8.20;;;4.90;;
68608;SDS011;55581;46.718;7.690;2023-06-19T01:58:32;8.80;;;5.35;;
68608;SDS011;55581;46.718;7.690;2023-06-19T02:00:57;7.87;;;4.93;;
68608;SDS011;55581;46.718;7.690;2023-06-19T02:03:23;7.45;;;4.45;;
68608;SDS011;55581;46.718;7.690;2023-06-19T02:05:51;9.70;;;5.00;;
68608;SDS011;55581;46.718;7.690;2023-06-19T02:08:16;9.50;;;5.10;;
68608;SDS011;55581;46.718;7.690;2023-06-19T02:10:42;7.73;;;4.73;;
68608;SDS011;55581;46.718;7.690;2023-06-19T02:13:07;9.43;;;5.00;;
68608;SDS011;55581;46.718;7.690;2023-06-19T02:15:32;8.97;;;5.33;;
68608;SDS011;55581;46.718;7.690;2023-06-19T02:17:59;9.00;;;4.80;;
68608;SDS011;55581;46.718;7.690;2023-06-19T02:20:25;8.07;;;5.03;;
68608;SDS011;55581;46.718;7.690;2023-06-19T02:22:50;8.10;;;4.95;;
68608;SDS011;55581;46.718;7.690;2023-06-19T02:25:16;8.77;;;5.63;;
68608;SDS011;55581;46.718;7.690;2023-06-19T02:27:42;10.20;;;6.50;;
68608;SDS011;55581;46.718;7.690;2023-06-19T02:30:07;9.27;;;5.90;;
68608;SDS011;55581;46.718;7.690;2023-06-19T02:32:33;10.75;;;6.35;;
68608;SDS011;55581;46.718;7.690;2023-06-19T02:34:58;10.27;;;5.90;;
68608;SDS011;55581;46.718;7.690;2023-06-19T02:37:24;10.47;;;6.57;;
68608;SDS011;55581;46.718;7.690;2023-06-19T02:39:49;10.93;;;6.40;;
68608;SDS011;55581;46.718;7.690;2023-06-19T02:42:17;9.52;;;6.03;;
68608;SDS011;55581;46.718;7.690;2023-06-19T02:44:42;9.30;;;5.90;;
68608;SDS011;55581;46.718;7.690;2023-06-19T02:47:08;8.88;;;5.28;;
68608;SDS011;55581;46.718;7.690;2023-06-19T02:49:33;9.27;;;5.87;;
68608;SDS011;55581;46.718;7.690;2023-06-19T02:51:59;8.82;;;6.32;;
68608;SDS011;55581;46.718;7.690;2023-06-19T02:54:25;10.13;;;6.37;;
68608;SDS011;55581;46.718;7.690;2023-06-19T02:56:50;10.00;;;6.40;;
68608;SDS011;55581;46.718;7.690;2023-06-19T02:59:16;13.77;;;6.20;;
68608;SDS011;55581;46.718;7.690;2023-06-19T03:01:41;11.50;;;6.80;;
68608;SDS011;55581;46.718;7.690;2023-06-19T03:04:07;10.77;;;6.55;;
68608;SDS011;55581;46.718;7.690;2023-06-19T03:06:32;10.73;;;6.83;;
68608;SDS011;55581;46.718;7.690;2023-06-19T03:09:04;12.25;;;6.78;;
68608;SDS011;55581;46.718;7.690;2023-06-19T03:11:30;10.53;;;6.20;;
68608;SDS011;55581;46.718;7.690;2023-06-19T03:13:55;9.57;;;6.22;;
68608;SDS011;55581;46.718;7.690;2023-06-19T03:16:21;12.53;;;6.70;;
68608;SDS011;55581;46.718;7.690;2023-06-19T03:18:47;11.25;;;7.05;;
68608;SDS011;55581;46.718;7.690;2023-06-19T03:21:18;17.57;;;6.87;;
68608;SDS011;55581;46.718;7.690;2023-06-19T03:23:44;12.35;;;6.38;;
68608;SDS011;55581;46.718;7.690;2023-06-19T03:26:10;13.60;;;7.73;;
68608;SDS011;55581;46.718;7.690;2023-06-19T03:28:38;10.07;;;6.77;;
68608;SDS011;55581;46.718;7.690;2023-06-19T03:31:03;10.23;;;6.63;;
68608;SDS011;55581;46.718;7.690;2023-06-19T03:33:29;10.83;;;7.10;;
68608;SDS011;55581;46.718;7.690;2023-06-19T03:35:54;10.90;;;7.17;;
68608;SDS011;55581;46.718;7.690;2023-06-19T03:38:20;10.48;;;6.88;;
68608;SDS011;55581;46.718;7.690;2023-06-19T03:40:45;13.97;;;7.20;;
68608;SDS011;55581;46.718;7.690;2023-06-19T03:43:11;12.23;;;7.50;;
68608;SDS011;55581;46.718;7.690;2023-06-19T03:45:36;15.00;;;7.07;;
68608;SDS011;55581;46.718;7.690;2023-06-19T03:48:02;10.67;;;7.20;;
68608;SDS011;55581;46.718;7.690;2023-06-19T03:50:28;12.27;;;7.63;;
68608;SDS011;55581;46.718;7.690;2023-06-19T03:52:53;10.87;;;7.57;;
68608;SDS011;55581;46.718;7.690;2023-06-19T03:55:18;10.43;;;7.03;;
68608;SDS011;55581;46.718;7.690;2023-06-19T03:57:44;12.53;;;8.20;;
68608;SDS011;55581;46.718;7.690;2023-06-19T04:00:13;10.57;;;7.17;;
68608;SDS011;55581;46.718;7.690;2023-06-19T04:02:39;12.57;;;7.70;;
68608;SDS011;55581;46.718;7.690;2023-06-19T04:05:05;13.00;;;7.97;;
68608;SDS011;55581;46.718;7.690;2023-06-19T04:07:31;12.30;;;7.20;;
68608;SDS011;55581;46.718;7.690;2023-06-19T04:09:57;14.50;;;7.95;;
68608;SDS011;55581;46.718;7.690;2023-06-19T04:12:24;11.85;;;8.13;;
68608;SDS011;55581;46.718;7.690;2023-06-19T04:14:52;14.07;;;8.03;;
68608;SDS011;55581;46.718;7.690;2023-06-19T04:17:20;12.95;;;7.63;;
68608;SDS011;55581;46.718;7.690;2023-06-19T04:19:45;11.30;;;7.73;;
68608;SDS011;55581;46.718;7.690;2023-06-19T04:22:13;13.80;;;7.75;;
68608;SDS011;55581;46.718;7.690;2023-06-19T04:24:38;10.67;;;7.43;;
68608;SDS011;55581;46.718;7.690;2023-06-19T04:27:04;11.90;;;6.60;;
68608;SDS011;55581;46.718;7.690;2023-06-19T04:29:33;11.53;;;6.57;;
68608;SDS011;55581;46.718;7.690;2023-06-19T04:32:00;11.85;;;6.13;;
68608;SDS011;55581;46.718;7.690;2023-06-19T04:34:36;11.38;;;6.32;;
68608;SDS011;55581;46.718;7.690;2023-06-19T04:37:04;13.27;;;6.90;;
68608;SDS011;55581;46.718;7.690;2023-06-19T04:39:30;11.53;;;6.03;;
68608;SDS011;55581;46.718;7.690;2023-06-19T04:41:55;13.48;;;5.72;;
68608;SDS011;55581;46.718;7.690;2023-06-19T04:44:21;8.07;;;5.13;;
68608;SDS011;55581;46.718;7.690;2023-06-19T04:46:47;8.60;;;5.28;;
68608;SDS011;55581;46.718;7.690;2023-06-19T04:49:13;8.07;;;4.43;;
68608;SDS011;55581;46.718;7.690;2023-06-19T04:51:40;9.48;;;6.07;;
68608;SDS011;55581;46.718;7.690;2023-06-19T04:54:09;10.37;;;5.10;;
68608;SDS011;55581;46.718;7.690;2023-06-19T04:56:36;11.02;;;5.43;;
68608;SDS011;55581;46.718;7.690;2023-06-19T04:59:03;7.25;;;4.70;;
68608;SDS011;55581;46.718;7.690;2023-06-19T05:01:29;9.40;;;5.27;;
68608;SDS011;55581;46.718;7.690;2023-06-19T05:03:55;7.65;;;5.25;;
68608;SDS011;55581;46.718;7.690;2023-06-19T05:06:24;11.35;;;6.18;;
68608;SDS011;55581;46.718;7.690;2023-06-19T05:08:50;9.68;;;5.70;;
68608;SDS011;55581;46.718;7.690;2023-06-19T05:11:15;11.40;;;6.10;;
68608;SDS011;55581;46.718;7.690;2023-06-19T05:13:41;11.70;;;5.73;;
68608;SDS011;55581;46.718;7.690;2023-06-19T05:16:06;8.45;;;5.55;;
68608;SDS011;55581;46.718;7.690;2023-06-19T05:18:32;8.63;;;5.63;;
68608;SDS011;55581;46.718;7.690;2023-06-19T05:20:58;7.80;;;5.47;;
68608;SDS011;55581;46.718;7.690;2023-06-19T05:23:23;9.57;;;5.90;;
68608;SDS011;55581;46.718;7.690;2023-06-19T05:25:49;8.47;;;5.73;;
68608;SDS011;55581;46.718;7.690;2023-06-19T05:28:14;10.35;;;5.55;;
68608;SDS011;55581;46.718;7.690;2023-06-19T05:30:43;8.85;;;6.35;;
68608;SDS011;55581;46.718;7.690;2023-06-19T05:33:10;10.70;;;6.10;;
68608;SDS011;55581;46.718;7.690;2023-06-19T05:35:40;11.95;;;5.68;;
68608;SDS011;55581;46.718;7.690;2023-06-19T05:38:06;11.75;;;6.13;;
68608;SDS011;55581;46.718;7.690;2023-06-19T05:40:32;8.93;;;5.40;;
68608;SDS011;55581;46.718;7.690;2023-06-19T05:42:57;8.43;;;5.07;;
68608;SDS011;55581;46.718;7.690;2023-06-19T05:45:25;9.68;;;5.88;;
68608;SDS011;55581;46.718;7.690;2023-06-19T05:47:52;10.27;;;5.87;;
68608;SDS011;55581;46.718;7.690;2023-06-19T05:50:17;9.63;;;6.63;;
68608;SDS011;55581;46.718;7.690;2023-06-19T05:52:42;9.03;;;5.97;;
68608;SDS011;55581;46.718;7.690;2023-06-19T05:55:08;8.60;;;5.87;;
68608;SDS011;55581;46.718;7.690;2023-06-19T05:57:35;10.43;;;6.03;;
68608;SDS011;55581;46.718;7.690;2023-06-19T06:00:00;8.80;;;5.87;;
68608;SDS011;55581;46.718;7.690;2023-06-19T06:02:26;9.35;;;5.85;;
68608;SDS011;55581;46.718;7.690;2023-06-19T06:04:53;11.17;;;6.50;;
68608;SDS011;55581;46.718;7.690;2023-06-19T06:07:18;7.97;;;5.80;;
68608;SDS011;55581;46.718;7.690;2023-06-19T06:09:45;9.63;;;6.50;;
68608;SDS011;55581;46.718;7.690;2023-06-19T06:12:11;9.48;;;6.20;;
68608;SDS011;55581;46.718;7.690;2023-06-19T06:14:37;10.85;;;6.53;;
68608;SDS011;55581;46.718;7.690;2023-06-19T06:17:08;11.25;;;6.65;;
68608;SDS011;55581;46.718;7.690;2023-06-19T06:19:33;9.43;;;6.43;;
68608;SDS011;55581;46.718;7.690;2023-06-19T06:21:59;10.50;;;6.57;;
68608;SDS011;55581;46.718;7.690;2023-06-19T06:24:24;9.53;;;6.43;;
68608;SDS011;55581;46.718;7.690;2023-06-19T06:26:52;10.63;;;6.70;;
68608;SDS011;55581;46.718;7.690;2023-06-19T06:29:17;10.17;;;6.90;;
68608;SDS011;55581;46.718;7.690;2023-06-19T06:31:46;10.60;;;6.85;;
68608;SDS011;55581;46.718;7.690;2023-06-19T06:34:12;11.85;;;6.88;;
68608;SDS011;55581;46.718;7.690;2023-06-19T06:36:41;10.00;;;6.93;;
68608;SDS011;55581;46.718;7.690;2023-06-19T06:39:06;10.40;;;7.20;;
68608;SDS011;55581;46.718;7.690;2023-06-19T06:41:31;10.10;;;6.67;;
68608;SDS011;55581;46.718;7.690;2023-06-19T06:43:57;9.60;;;6.27;;
68608;SDS011;55581;46.718;7.690;2023-06-19T06:46:23;11.87;;;8.00;;
68608;SDS011;55581;46.718;7.690;2023-06-19T06:48:49;9.60;;;6.70;;
68608;SDS011;55581;46.718;7.690;2023-06-19T06:51:18;10.32;;;6.97;;
68608;SDS011;55581;46.718;7.690;2023-06-19T06:53:43;10.90;;;6.73;;
68608;SDS011;55581;46.718;7.690;2023-06-19T06:56:09;9.10;;;6.63;;
68608;SDS011;55581;46.718;7.690;2023-06-19T06:58:40;12.50;;;7.03;;
68608;SDS011;55581;46.718;7.690;2023-06-19T07:01:06;12.47;;;7.67;;
68608;SDS011;55581;46.718;7.690;2023-06-19T07:03:32;10.02;;;7.05;;
68608;SDS011;55581;46.718;7.690;2023-06-19T07:06:00;10.23;;;7.00;;
68608;SDS011;55581;46.718;7.690;2023-06-19T07:08:27;9.00;;;6.30;;
68608;SDS011;55581;46.718;7.690;2023-06-19T07:10:53;10.33;;;7.17;;
68608;SDS011;55581;46.718;7.690;2023-06-19T07:13:18;10.88;;;6.85;;
68608;SDS011;55581;46.718;7.690;2023-06-19T07:15:43;10.90;;;6.77;;
68608;SDS011;55581;46.718;7.690;2023-06-19T07:18:09;9.87;;;7.07;;
68608;SDS011;55581;46.718;7.690;2023-06-19T07:20:35;9.48;;;6.53;;
68608;SDS011;55581;46.718;7.690;2023-06-19T07:23:00;9.97;;;7.00;;
68608;SDS011;55581;46.718;7.690;2023-06-19T07:25:28;8.98;;;6.65;;
68608;SDS011;55581;46.718;7.690;2023-06-19T07:27:56;9.27;;;7.20;;
68608;SDS011;55581;46.718;7.690;2023-06-19T07:30:23;9.57;;;6.82;;
68608;SDS011;55581;46.718;7.690;2023-06-19T07:32:50;10.57;;;6.68;;
68608;SDS011;55581;46.718;7.690;2023-06-19T07:35:15;11.10;;;6.73;;
68608;SDS011;55581;46.718;7.690;2023-06-19T07:37:41;10.00;;;7.60;;
68608;SDS011;55581;46.718;7.690;2023-06-19T07:40:06;12.43;;;6.40;;
68608;SDS011;55581;46.718;7.690;2023-06-19T07:42:32;11.93;;;6.37;;
68608;SDS011;55581;46.718;7.690;2023-06-19T07:44:57;10.05;;;7.03;;
68608;SDS011;55581;46.718;7.690;2023-06-19T07:47:23;9.63;;;6.60;;
68608;SDS011;55581;46.718;7.690;2023-06-19T07:49:49;9.32;;;6.05;;
68608;SDS011;55581;46.718;7.690;2023-06-19T07:52:15;9.85;;;6.40;;
68608;SDS011;55581;46.718;7.690;2023-06-19T07:54:53;9.17;;;6.17;;
68608;SDS011;55581;46.718;7.690;2023-06-19T07:57:22;8.23;;;6.40;;
68608;SDS011;55581;46.718;7.690;2023-06-19T07:59:52;10.07;;;6.72;;
68608;SDS011;55581;46.718;7.690;2023-06-19T08:02:20;8.85;;;6.15;;
68608;SDS011;55581;46.718;7.690;2023-06-19T08:04:46;9.13;;;6.70;;
68608;SDS011;55581;46.718;7.690;2023-06-19T08:07:12;9.48;;;6.35;;
68608;SDS011;55581;46.718;7.690;2023-06-19T08:09:37;9.60;;;6.30;;
68608;SDS011;55581;46.718;7.690;2023-06-19T08:12:03;9.33;;;6.33;;
68608;SDS011;55581;46.718;7.690;2023-06-19T08:14:31;8.38;;;6.07;;
68608;SDS011;55581;46.718;7.690;2023-06-19T08:16:56;8.27;;;5.70;;
68608;SDS011;55581;46.718;7.690;2023-06-19T08:19:22;8.95;;;5.88;;
68608;SDS011;55581;46.718;7.690;2023-06-19T08:21:47;10.00;;;6.47;;
68608;SDS011;55581;46.718;7.690;2023-06-19T08:24:13;10.50;;;6.00;;
68608;SDS011;55581;46.718;7.690;2023-06-19T08:26:38;8.18;;;5.47;;
68608;SDS011;55581;46.718;7.690;2023-06-19T08:29:03;11.07;;;6.47;;
68608;SDS011;55581;46.718;7.690;2023-06-19T08:31:29;10.67;;;6.13;;
68608;SDS011;55581;46.718;7.690;2023-06-19T08:33:55;16.53;;;7.10;;
68608;SDS011;55581;46.718;7.690;2023-06-19T08:36:23;8.35;;;5.78;;
68608;SDS011;55581;46.718;7.690;2023-06-19T08:38:48;8.77;;;6.03;;
68608;SDS011;55581;46.718;7.690;2023-06-19T08:41:19;10.27;;;6.30;;
68608;SDS011;55581;46.718;7.690;2023-06-19T08:43:45;11.50;;;6.18;;
68608;SDS011;55581;46.718;7.690;2023-06-19T08:46:15;9.57;;;7.28;;
68608;SDS011;55581;46.718;7.690;2023-06-19T08:48:42;7.75;;;6.20;;
68608;SDS011;55581;46.718;7.690;2023-06-19T08:51:11;9.30;;;6.60;;
68608;SDS011;55581;46.718;7.690;2023-06-19T08:53:49;9.73;;;6.72;;
68608;SDS011;55581;46.718;7.690;2023-06-19T08:56:19;9.38;;;6.70;;
68608;SDS011;55581;46.718;7.690;2023-06-19T08:58:45;10.07;;;6.32;;
68608;SDS011;55581;46.718;7.690;2023-06-19T09:01:11;9.70;;;6.97;;
68608;SDS011;55581;46.718;7.690;2023-06-19T09:03:38;8.80;;;6.32;;
68608;SDS011;55581;46.718;7.690;2023-06-19T09:06:04;9.37;;;6.90;;
68608;SDS011;55581;46.718;7.690;2023-06-19T09:08:34;8.45;;;6.13;;
68608;SDS011;55581;46.718;7.690;2023-06-19T09:11:04;9.13;;;6.30;;
68608;SDS011;55581;46.718;7.690;2023-06-19T09:13:31;9.40;;;6.60;;
68608;SDS011;55581;46.718;7.690;2023-06-19T09:16:04;8.90;;;6.40;;
68608;SDS011;55581;46.718;7.690;2023-06-19T09:18:46;11.02;;;6.45;;
68608;SDS011;55581;46.718;7.690;2023-06-19T09:21:19;9.43;;;6.53;;
68608;SDS011;55581;46.718;7.690;2023-06-19T09:23:49;9.07;;;6.40;;
68608;SDS011;55581;46.718;7.690;2023-06-19T09:26:17;8.90;;;6.63;;
68608;SDS011;55581;46.718;7.690;2023-06-19T09:28:44;10.38;;;6.80;;
68608;SDS011;55581;46.718;7.690;2023-06-19T09:31:10;10.43;;;6.72;;
68608;SDS011;55581;46.718;7.690;2023-06-19T09:33:36;9.90;;;6.60;;
68608;SDS011;55581;46.718;7.690;2023-06-19T09:36:03;8.90;;;6.82;;
68608;SDS011;55581;46.718;7.690;2023-06-19T09:38:31;7.80;;;6.68;;
68608;SDS011;55581;46.718;7.690;2023-06-19T09:41:00;8.75;;;6.35;;
68608;SDS011;55581;46.718;7.690;2023-06-19T09:43:37;9.20;;;6.87;;
68608;SDS011;55581;46.718;7.690;2023-06-19T09:46:06;9.10;;;7.10;;
68608;SDS011;55581;46.718;7.690;2023-06-19T09:48:34;8.02;;;6.30;;
68608;SDS011;55581;46.718;7.690;2023-06-19T09:51:02;8.15;;;6.60;;
68608;SDS011;55581;46.718;7.690;2023-06-19T09:53:36;7.87;;;5.53;;
68608;SDS011;55581;46.718;7.690;2023-06-19T09:56:01;7.47;;;5.68;;
68608;SDS011;55581;46.718;7.690;2023-06-19T09:58:27;9.63;;;5.65;;
68608;SDS011;55581;46.718;7.690;2023-06-19T10:00:55;8.87;;;5.60;;
68608;SDS011;55581;46.718;7.690;2023-06-19T10:03:31;6.80;;;5.55;;
68608;SDS011;55581;46.718;7.690;2023-06-19T10:06:00;7.78;;;5.65;;
68608;SDS011;55581;46.718;7.690;2023-06-19T10:08:39;8.77;;;5.82;;
68608;SDS011;55581;46.718;7.690;2023-06-19T10:11:09;6.90;;;5.53;;
68608;SDS011;55581;46.718;7.690;2023-06-19T10:13:38;8.20;;;5.83;;
68608;SDS011;55581;46.718;7.690;2023-06-19T10:16:05;6.85;;;5.40;;
68608;SDS011;55581;46.718;7.690;2023-06-19T10:18:32;8.23;;;5.93;;
68608;SDS011;55581;46.718;7.690;2023-06-19T10:20:58;8.52;;;5.85;;
68608;SDS011;55581;46.718;7.690;2023-06-19T10:23:26;7.90;;;6.35;;
68608;SDS011;55581;46.718;7.690;2023-06-19T10:28:29;8.43;;;6.10;;
68608;SDS011;55581;46.718;7.690;2023-06-19T10:30:57;9.35;;;5.72;;
68608;SDS011;55581;46.718;7.690;2023-06-19T10:33:32;7.60;;;6.10;;
68608;SDS011;55581;46.718;7.690;2023-06-19T10:35:59;7.90;;;5.78;;
68608;SDS011;55581;46.718;7.690;2023-06-19T10:38:28;8.55;;;6.28;;
68608;SDS011;55581;46.718;7.690;2023-06-19T10:40:54;8.25;;;5.90;;
68608;SDS011;55581;46.718;7.690;2023-06-19T10:43:23;8.70;;;6.40;;
68608;SDS011;55581;46.718;7.690;2023-06-19T10:45:52;8.50;;;5.72;;
68608;SDS011;55581;46.718;7.690;2023-06-19T10:48:21;7.57;;;6.10;;
68608;SDS011;55581;46.718;7.690;2023-06-19T10:50:48;6.93;;;5.67;;
68608;SDS011;55581;46.718;7.690;2023-06-19T10:53:27;7.57;;;5.97;;
68608;SDS011;55581;46.718;7.690;2023-06-19T10:55:55;7.22;;;5.60;;
68608;SDS011;55581;46.718;7.690;2023-06-19T10:58:22;6.85;;;5.40;;
68608;SDS011;55581;46.718;7.690;2023-06-19T11:00:50;8.82;;;6.18;;
68608;SDS011;55581;46.718;7.690;2023-06-19T11:03:18;6.47;;;5.17;;
68608;SDS011;55581;46.718;7.690;2023-06-19T11:05:45;7.00;;;5.22;;
68608;SDS011;55581;46.718;7.690;2023-06-19T11:08:11;7.13;;;5.03;;
68608;SDS011;55581;46.718;7.690;2023-06-19T11:10:43;6.28;;;4.97;;
68608;SDS011;55581;46.718;7.690;2023-06-19T11:13:13;7.40;;;5.73;;
68608;SDS011;55581;46.718;7.690;2023-06-19T11:15:39;7.22;;;5.47;;
68608;SDS011;55581;46.718;7.690;2023-06-19T11:18:05;7.00;;;5.53;;
68608;SDS011;55581;46.718;7.690;2023-06-19T11:20:30;6.23;;;4.97;;
68608;SDS011;55581;46.718;7.690;2023-06-19T11:23:00;6.60;;;5.22;;
68608;SDS011;55581;46.718;7.690;2023-06-19T11:25:39;6.38;;;5.07;;
68608;SDS011;55581;46.718;7.690;2023-06-19T11:30:38;6.67;;;4.97;;
68608;SDS011;55581;46.718;7.690;2023-06-19T11:33:14;8.07;;;5.05;;
68608;SDS011;55581;46.718;7.690;2023-06-19T11:35:50;6.90;;;5.50;;
68608;SDS011;55581;46.718;7.690;2023-06-19T11:38:19;10.13;;;5.90;;
68608;SDS011;55581;46.718;7.690;2023-06-19T11:40:47;6.93;;;5.28;;
68608;SDS011;55581;46.718;7.690;2023-06-19T11:43:23;7.43;;;5.53;;
68608;SDS011;55581;46.718;7.690;2023-06-19T11:46:07;8.10;;;5.15;;
68608;SDS011;55581;46.718;7.690;2023-06-19T11:48:35;8.98;;;5.30;;
68608;SDS011;55581;46.718;7.690;2023-06-19T11:51:02;9.65;;;5.57;;
68608;SDS011;55581;46.718;7.690;2023-06-19T11:53:27;8.10;;;5.47;;
68608;SDS011;55581;46.718;7.690;2023-06-19T11:55:53;7.17;;;5.33;;
68608;SDS011;55581;46.718;7.690;2023-06-19T11:58:18;8.00;;;5.20;;
68608;SDS011;55581;46.718;7.690;2023-06-19T12:00:48;7.18;;;5.63;;
68608;SDS011;55581;46.718;7.690;2023-06-19T12:03:15;7.77;;;5.67;;
68608;SDS011;55581;46.718;7.690;2023-06-19T12:05:43;7.10;;;5.28;;
68608;SDS011;55581;46.718;7.690;2023-06-19T12:08:08;8.90;;;5.07;;
68608;SDS011;55581;46.718;7.690;2023-06-19T12:10:35;7.33;;;5.60;;
68608;SDS011;55581;46.718;7.690;2023-06-19T12:13:01;7.95;;;6.20;;
68608;SDS011;55581;46.718;7.690;2023-06-19T12:15:26;7.67;;;5.43;;
68608;SDS011;55581;46.718;7.690;2023-06-19T12:17:52;7.75;;;5.95;;
68608;SDS011;55581;46.718;7.690;2023-06-19T12:20:18;8.73;;;6.13;;
68608;SDS011;55581;46.718;7.690;2023-06-19T12:22:44;7.88;;;5.05;;
68608;SDS011;55581;46.718;7.690;2023-06-19T12:25:11;7.50;;;5.43;;
68608;SDS011;55581;46.718;7.690;2023-06-19T12:27:37;10.70;;;6.18;;
68608;SDS011;55581;46.718;7.690;2023-06-19T12:30:04;7.87;;;5.93;;
68608;SDS011;55581;46.718;7.690;2023-06-19T12:32:30;7.75;;;5.43;;
68608;SDS011;55581;46.718;7.690;2023-06-19T12:34:56;7.18;;;5.10;;
68608;SDS011;55581;46.718;7.690;2023-06-19T12:37:22;9.73;;;5.27;;
68608;SDS011;55581;46.718;7.690;2023-06-19T12:39:48;8.20;;;6.28;;
68608;SDS011;55581;46.718;7.690;2023-06-19T12:42:15;8.03;;;5.73;;
68608;SDS011;55581;46.718;7.690;2023-06-19T12:44:42;8.23;;;6.30;;
68608;SDS011;55581;46.718;7.690;2023-06-19T12:47:11;7.82;;;5.50;;
68608;SDS011;55581;46.718;7.690;2023-06-19T12:49:36;8.13;;;6.07;;
68608;SDS011;55581;46.718;7.690;2023-06-19T12:52:02;9.30;;;5.95;;
68608;SDS011;55581;46.718;7.690;2023-06-19T12:54:27;7.93;;;6.33;;
68608;SDS011;55581;46.718;7.690;2023-06-19T12:56:53;10.43;;;7.03;;
68608;SDS011;55581;46.718;7.690;2023-06-19T12:59:20;10.93;;;6.80;;
68608;SDS011;55581;46.718;7.690;2023-06-19T13:01:45;10.77;;;6.53;;
68608;SDS011;55581;46.718;7.690;2023-06-19T13:04:11;8.17;;;6.93;;
68608;SDS011;55581;46.718;7.690;2023-06-19T13:06:40;9.07;;;6.43;;
68608;SDS011;55581;46.718;7.690;2023-06-19T13:09:05;8.33;;;6.57;;
68608;SDS011;55581;46.718;7.690;2023-06-19T13:11:31;8.25;;;6.00;;
68608;SDS011;55581;46.718;7.690;2023-06-19T13:13:59;9.27;;;6.03;;
68608;SDS011;55581;46.718;7.690;2023-06-19T13:16:24;9.50;;;6.47;;
68608;SDS011;55581;46.718;7.690;2023-06-19T13:18:51;8.73;;;6.18;;
68608;SDS011;55581;46.718;7.690;2023-06-19T13:21:17;7.67;;;5.63;;
68608;SDS011;55581;46.718;7.690;2023-06-19T13:23:42;6.90;;;5.43;;
68608;SDS011;55581;46.718;7.690;2023-06-19T13:26:08;7.83;;;5.70;;
68608;SDS011;55581;46.718;7.690;2023-06-19T13:28:37;8.38;;;6.13;;
68608;SDS011;55581;46.718;7.690;2023-06-19T13:31:05;9.63;;;6.35;;
68608;SDS011;55581;46.718;7.690;2023-06-19T13:33:33;7.10;;;5.57;;
68608;SDS011;55581;46.718;7.690;2023-06-19T13:35:58;9.00;;;6.17;;
68608;SDS011;55581;46.718;7.690;2023-06-19T13:38:24;7.20;;;5.93;;
68608;SDS011;55581;46.718;7.690;2023-06-19T13:40:49;6.97;;;5.63;;
68608;SDS011;55581;46.718;7.690;2023-06-19T13:43:15;8.57;;;6.63;;
68608;SDS011;55581;46.718;7.690;2023-06-19T13:45:44;6.88;;;5.72;;
68608;SDS011;55581;46.718;7.690;2023-06-19T13:48:10;7.57;;;5.83;;
68608;SDS011;55581;46.718;7.690;2023-06-19T13:50:35;8.20;;;6.27;;
68608;SDS011;55581;46.718;7.690;2023-06-19T13:53:02;9.60;;;6.30;;
68608;SDS011;55581;46.718;7.690;2023-06-19T13:55:29;7.00;;;6.07;;
68608;SDS011;55581;46.718;7.690;2023-06-19T13:57:55;7.97;;;5.95;;
68608;SDS011;55581;46.718;7.690;2023-06-19T14:00:20;9.77;;;6.07;;
68608;SDS011;55581;46.718;7.690;2023-06-19T14:02:46;9.27;;;6.97;;
68608;SDS011;55581;46.718;7.690;2023-06-19T14:05:14;8.77;;;6.72;;
68608;SDS011;55581;46.718;7.690;2023-06-19T14:07:40;8.98;;;6.68;;
68608;SDS011;55581;46.718;7.690;2023-06-19T14:10:09;8.70;;;6.78;;
68608;SDS011;55581;46.718;7.690;2023-06-19T14:12:34;13.63;;;7.07;;
68608;SDS011;55581;46.718;7.690;2023-06-19T14:15:00;8.83;;;6.80;;
68608;SDS011;55581;46.718;7.690;2023-06-19T14:17:25;10.30;;;7.18;;
68608;SDS011;55581;46.718;7.690;2023-06-19T14:19:51;10.70;;;7.17;;
68608;SDS011;55581;46.718;7.690;2023-06-19T14:22:16;9.57;;;6.53;;
68608;SDS011;55581;46.718;7.690;2023-06-19T14:24:42;7.50;;;5.68;;
68608;SDS011;55581;46.718;7.690;2023-06-19T14:27:08;9.90;;;6.35;;
68608;SDS011;55581;46.718;7.690;2023-06-19T14:29:34;9.10;;;6.23;;
68608;SDS011;55581;46.718;7.690;2023-06-19T14:32:02;6.90;;;5.05;;
68608;SDS011;55581;46.718;7.690;2023-06-19T14:34:28;9.38;;;5.63;;
68608;SDS011;55581;46.718;7.690;2023-06-19T14:36:54;7.25;;;5.05;;
68608;SDS011;55581;46.718;7.690;2023-06-19T14:39:19;9.40;;;6.47;;
68608;SDS011;55581;46.718;7.690;2023-06-19T14:41:46;7.50;;;5.50;;
68608;SDS011;55581;46.718;7.690;2023-06-19T14:44:12;9.20;;;5.50;;
68608;SDS011;55581;46.718;7.690;2023-06-19T14:46:37;6.95;;;5.13;;
68608;SDS011;55581;46.718;7.690;2023-06-19T14:49:09;7.70;;;4.93;;